TAF Text Data
IDs:
Format:
Raw Decoded Include METAR

Data at: 0819 UTC 01 Aug 2021

KMKL 010520Z 0106/0206 30004KT P6SM VCTS BKN025 BKN040CB
  TEMPO 0106/0110 01010G20KT 4SM -TSRA BKN025CB
  FM011000 35006KT P6SM VCSH BKN025
  FM011500 35006KT P6SM BKN025
  FM011800 01008KT P6SM BKN045
  FM020000 05004KT P6SM BKN150